Time;durP1;ratioP1;P1;durP2;ratioP2;P2;SDS_P1;SDS_P2;PMS_P1;PMS_P2;Temp;Humidity;BMP_temperature;BMP_pressure;BME280_temperature;BME280_humidity;BME280_pressure;Samples;Min_cycle;Max_cycle;Signal;HPM_P1;HPM_P2
2023/06/11 00:00:11;;;;;;;20.75;14.68;;;;;;;;;;5056540;28;20135;-61
2023/06/11 00:02:41;;;;;;;19.75;15.55;;;;;;;;;;5056457;28;20365;-60
2023/06/11 00:05:07;;;;;;;21.20;15.07;;;;;;;;;;5056113;28;20017;-61
2023/06/11 00:07:34;;;;;;;21.40;14.93;;;;;;;;;;5057011;28;20543;-58
2023/06/11 00:10:01;;;;;;;19.85;14.98;;;;;;;;;;5056876;28;20028;-61
2023/06/11 00:12:27;;;;;;;20.83;14.75;;;;;;;;;;5074782;28;20017;-65
2023/06/11 00:14:53;;;;;;;20.40;14.63;;;;;;;;;;5056378;28;20388;-63
2023/06/11 00:17:18;;;;;;;21.48;14.50;;;;;;;;;;5056882;28;20095;-60
2023/06/11 00:19:47;;;;;;;20.98;14.75;;;;;;;;;;5056657;28;20025;-62
2023/06/11 00:22:14;;;;;;;19.58;14.90;;;;;;;;;;5056432;28;20031;-62
2023/06/11 00:24:40;;;;;;;20.97;16.83;;;;;;;;;;5055669;28;20377;-64
2023/06/11 00:27:07;;;;;;;18.30;14.40;;;;;;;;;;5056202;28;20024;-61
2023/06/11 00:29:33;;;;;;;19.08;15.00;;;;;;;;;;5056274;28;20166;-57
2023/06/11 00:31:59;;;;;;;19.42;14.95;;;;;;;;;;5056218;28;20066;-63
2023/06/11 00:34:26;;;;;;;20.02;15.55;;;;;;;;;;5073267;28;20028;-60
2023/06/11 00:36:52;;;;;;;20.63;15.88;;;;;;;;;;5073907;28;20103;-64
2023/06/11 00:39:18;;;;;;;18.58;14.85;;;;;;;;;;5056045;28;20519;-61
2023/06/11 00:41:48;;;;;;;20.92;15.45;;;;;;;;;;5066319;28;20029;-60
2023/06/11 00:44:21;;;;;;;21.10;14.80;;;;;;;;;;5054832;28;20028;-61
2023/06/11 00:46:48;;;;;;;19.65;14.80;;;;;;;;;;5055685;28;20028;-60
2023/06/11 00:49:15;;;;;;;19.58;14.70;;;;;;;;;;5055463;28;20396;-62
2023/06/11 00:51:42;;;;;;;18.70;14.75;;;;;;;;;;5055476;28;20031;-61
2023/06/11 00:54:08;;;;;;;19.98;14.32;;;;;;;;;;5054857;28;20103;-60
2023/06/11 00:56:34;;;;;;;19.90;15.00;;;;;;;;;;5055440;28;20027;-59
2023/06/11 01:01:41;;;;;;;21.52;15.65;;;;;;;;;;5041153;28;20049;-58
2023/06/11 01:04:13;;;;;;;18.90;14.90;;;;;;;;;;5027441;28;20428;-54
2023/06/11 01:06:46;;;;;;;19.17;14.90;;;;;;;;;;5033458;28;20381;-58
2023/06/11 01:09:12;;;;;;;18.73;14.45;;;;;;;;;;5033680;28;20013;-59
2023/06/11 01:11:38;;;;;;;19.58;14.23;;;;;;;;;;5033350;28;20040;-56
2023/06/11 01:14:05;;;;;;;20.33;15.48;;;;;;;;;;5014466;28;20037;-58
2023/06/11 01:16:34;;;;;;;25.40;14.38;;;;;;;;;;5033222;28;20021;-55
2023/06/11 01:19:08;;;;;;;19.45;15.77;;;;;;;;;;5033305;28;20083;-53
2023/06/11 01:21:40;;;;;;;21.67;16.15;;;;;;;;;;5033328;28;20097;-60
2023/06/11 01:24:11;;;;;;;19.63;15.35;;;;;;;;;;5033050;28;20024;-59
2023/06/11 01:26:56;;;;;;;19.17;15.02;;;;;;;;;;5015610;28;20108;-57
2023/06/11 01:29:22;;;;;;;20.90;15.05;;;;;;;;;;5033375;28;20381;-58
2023/06/11 01:31:48;;;;;;;19.90;14.55;;;;;;;;;;5033381;28;20079;-57
2023/06/11 01:34:14;;;;;;;19.75;14.88;;;;;;;;;;5014793;28;20025;-60
2023/06/11 01:36:40;;;;;;;20.75;14.75;;;;;;;;;;5015165;28;20021;-58
2023/06/11 01:39:06;;;;;;;19.77;16.00;;;;;;;;;;5032608;28;20018;-59
2023/06/11 01:41:32;;;;;;;19.40;14.45;;;;;;;;;;5032784;28;20017;-61
2023/06/11 01:43:58;;;;;;;19.88;14.38;;;;;;;;;;5032284;28;20017;-58
2023/06/11 01:46:24;;;;;;;18.75;14.32;;;;;;;;;;5020977;28;20108;-60
2023/06/11 01:48:50;;;;;;;21.38;15.75;;;;;;;;;;5012972;28;20076;-58
2023/06/11 01:51:16;;;;;;;20.67;15.60;;;;;;;;;;5012885;28;20018;-59
2023/06/11 01:53:43;;;;;;;21.30;15.20;;;;;;;;;;4995295;28;20049;-59
2023/06/11 01:56:09;;;;;;;19.50;14.55;;;;;;;;;;4994457;28;20112;-59
2023/06/11 01:58:37;;;;;;;19.30;14.50;;;;;;;;;;5012395;28;20069;-58
2023/06/11 02:01:03;;;;;;;20.58;15.02;;;;;;;;;;4995108;28;20351;-59
2023/06/11 02:03:29;;;;;;;20.48;15.18;;;;;;;;;;4995140;28;20423;-58
2023/06/11 02:05:55;;;;;;;19.15;14.70;;;;;;;;;;4994542;28;20029;-55
2023/06/11 02:08:21;;;;;;;18.88;14.50;;;;;;;;;;4995017;28;20030;-59
2023/06/11 02:10:47;;;;;;;19.45;14.82;;;;;;;;;;5012953;28;20022;-54
2023/06/11 02:13:13;;;;;;;19.17;15.07;;;;;;;;;;4995071;28;20029;-57
2023/06/11 02:15:39;;;;;;;19.27;14.77;;;;;;;;;;5012097;28;20032;-57
2023/06/11 02:18:05;;;;;;;18.73;14.30;;;;;;;;;;5012369;28;20029;-60
2023/06/11 02:20:31;;;;;;;19.05;14.68;;;;;;;;;;5012198;28;20030;-58
2023/06/11 02:22:57;;;;;;;20.35;14.88;;;;;;;;;;5012274;28;20045;-59
2023/06/11 02:25:23;;;;;;;20.50;15.30;;;;;;;;;;5010667;28;20057;-58
2023/06/11 02:27:50;;;;;;;20.15;15.77;;;;;;;;;;5012074;28;20030;-56
2023/06/11 02:30:16;;;;;;;20.08;14.57;;;;;;;;;;5012161;28;20100;-58
2023/06/11 02:32:43;;;;;;;20.05;15.57;;;;;;;;;;5012344;28;20025;-57
2023/06/11 02:35:09;;;;;;;19.73;14.98;;;;;;;;;;5011379;28;20029;-58
2023/06/11 02:37:35;;;;;;;22.02;15.15;;;;;;;;;;5011966;28;20018;-60
2023/06/11 02:40:01;;;;;;;18.80;14.93;;;;;;;;;;5012025;28;20377;-57
2023/06/11 02:42:27;;;;;;;20.35;15.45;;;;;;;;;;4994592;28;20120;-59
2023/06/11 02:44:53;;;;;;;18.95;14.52;;;;;;;;;;5011261;28;20017;-60
2023/06/11 02:47:19;;;;;;;21.50;14.82;;;;;;;;;;5012303;28;20045;-58
2023/06/11 02:49:45;;;;;;;21.38;16.10;;;;;;;;;;5012121;28;20459;-58
2023/06/11 02:52:11;;;;;;;25.40;14.90;;;;;;;;;;5012082;28;20030;-58
2023/06/11 02:54:37;;;;;;;20.95;14.77;;;;;;;;;;5011429;28;20022;-57
2023/06/11 02:57:03;;;;;;;19.52;14.75;;;;;;;;;;5011929;28;20017;-58
2023/06/11 02:59:29;;;;;;;22.33;15.40;;;;;;;;;;5011445;28;20072;-59
2023/06/11 03:01:55;;;;;;;20.02;14.63;;;;;;;;;;4994300;28;20076;-59
2023/06/11 03:04:21;;;;;;;20.00;14.57;;;;;;;;;;4993598;28;20378;-60
2023/06/11 03:06:47;;;;;;;23.40;14.82;;;;;;;;;;5012233;28;20022;-58
2023/06/11 03:09:13;;;;;;;19.30;15.00;;;;;;;;;;5011604;28;20230;-60
2023/06/11 03:11:39;;;;;;;21.30;15.43;;;;;;;;;;4994201;28;20018;-60
2023/06/11 03:14:05;;;;;;;19.58;15.02;;;;;;;;;;5011300;28;20025;-58
2023/06/11 03:16:32;;;;;;;20.63;15.20;;;;;;;;;;4994193;28;20026;-57
2023/06/11 03:18:58;;;;;;;19.57;14.53;;;;;;;;;;4994009;28;20018;-55
2023/06/11 03:21:24;;;;;;;19.73;15.15;;;;;;;;;;5011767;28;20160;-59
2023/06/11 03:23:50;;;;;;;21.60;15.30;;;;;;;;;;4994121;28;20042;-59
2023/06/11 03:26:16;;;;;;;19.23;14.25;;;;;;;;;;5011287;28;20013;-56
2023/06/11 03:28:42;;;;;;;22.42;14.63;;;;;;;;;;5011651;28;20378;-57
2023/06/11 03:31:08;;;;;;;20.25;14.68;;;;;;;;;;5011503;28;20034;-58
2023/06/11 03:33:34;;;;;;;21.13;15.20;;;;;;;;;;5011462;28;20029;-55
2023/06/11 03:36:00;;;;;;;21.17;14.80;;;;;;;;;;5011619;28;20081;-56
2023/06/11 03:38:26;;;;;;;18.65;14.27;;;;;;;;;;5015392;28;20026;-57
2023/06/11 03:40:52;;;;;;;19.92;15.00;;;;;;;;;;5015252;28;20029;-58
2023/06/11 03:43:18;;;;;;;20.58;14.50;;;;;;;;;;5015446;28;20481;-59
2023/06/11 03:45:44;;;;;;;20.77;14.43;;;;;;;;;;4996606;28;20010;-60
2023/06/11 03:48:10;;;;;;;22.02;15.52;;;;;;;;;;4997331;28;20500;-54
2023/06/11 03:50:36;;;;;;;19.75;14.65;;;;;;;;;;5014811;28;20137;-57
2023/06/11 03:53:03;;;;;;;19.65;14.65;;;;;;;;;;4997166;28;20021;-57
2023/06/11 03:55:29;;;;;;;19.17;14.55;;;;;;;;;;5014124;28;20017;-58
2023/06/11 03:57:56;;;;;;;20.27;15.20;;;;;;;;;;5014707;28;20021;-59
2023/06/11 04:00:22;;;;;;;21.80;16.02;;;;;;;;;;4996779;28;20028;-57
2023/06/11 04:02:48;;;;;;;22.38;15.05;;;;;;;;;;5014529;28;20026;-57
2023/06/11 04:05:14;;;;;;;19.92;14.95;;;;;;;;;;5014143;28;20053;-59
2023/06/11 04:07:40;;;;;;;20.80;14.55;;;;;;;;;;4996979;28;20018;-59
2023/06/11 04:10:09;;;;;;;24.55;14.30;;;;;;;;;;5014588;28;20022;-54
2023/06/11 04:12:35;;;;;;;22.45;15.40;;;;;;;;;;5016072;28;20022;-58
2023/06/11 04:15:02;;;;;;;20.33;15.00;;;;;;;;;;5016180;28;20548;-59
2023/06/11 04:17:28;;;;;;;20.33;15.18;;;;;;;;;;5016024;28;20113;-58
2023/06/11 04:19:54;;;;;;;21.42;15.35;;;;;;;;;;5014768;28;20033;-60
2023/06/11 04:22:20;;;;;;;22.20;15.38;;;;;;;;;;5015140;28;20022;-61
2023/06/11 04:24:46;;;;;;;25.60;14.88;;;;;;;;;;5014656;28;20024;-61
2023/06/11 04:27:12;;;;;;;20.38;15.13;;;;;;;;;;4997708;28;20034;-59
2023/06/11 04:29:38;;;;;;;19.77;14.65;;;;;;;;;;4998131;28;20367;-57
2023/06/11 04:32:04;;;;;;;21.58;15.35;;;;;;;;;;5015281;28;20080;-60
2023/06/11 04:34:30;;;;;;;20.27;15.25;;;;;;;;;;5014037;28;20025;-59
2023/06/11 04:36:57;;;;;;;20.13;15.02;;;;;;;;;;4997016;28;20129;-60
2023/06/11 04:39:23;;;;;;;23.50;15.40;;;;;;;;;;5013776;28;20041;-57
2023/06/11 04:41:51;;;;;;;19.38;13.70;;;;;;;;;;5014129;28;20399;-54
2023/06/11 04:44:20;;;;;;;20.77;15.33;;;;;;;;;;4996302;28;20014;-60
2023/06/11 04:46:47;;;;;;;21.40;15.20;;;;;;;;;;5013980;28;20044;-53
2023/06/11 04:49:15;;;;;;;20.48;14.88;;;;;;;;;;4995609;28;20022;-59
2023/06/11 04:51:42;;;;;;;20.10;14.63;;;;;;;;;;5014167;28;20066;-59
2023/06/11 04:54:08;;;;;;;20.20;15.85;;;;;;;;;;5013118;28;20378;-57
2023/06/11 04:56:34;;;;;;;23.13;15.98;;;;;;;;;;5014109;28;20033;-56
2023/06/11 04:59:05;;;;;;;20.63;15.65;;;;;;;;;;5013780;28;20018;-60
2023/06/11 05:01:32;;;;;;;19.95;15.45;;;;;;;;;;5013980;28;20095;-60
2023/06/11 05:03:58;;;;;;;19.80;14.88;;;;;;;;;;5013176;28;20024;-61
2023/06/11 05:06:25;;;;;;;21.50;15.52;;;;;;;;;;5013533;28;20021;-56
2023/06/11 05:08:52;;;;;;;20.58;14.98;;;;;;;;;;4995929;28;20022;-56
2023/06/11 05:11:18;;;;;;;19.42;15.57;;;;;;;;;;5013374;28;20022;-59
2023/06/11 05:13:44;;;;;;;21.05;15.38;;;;;;;;;;5013501;28;20026;-58
2023/06/11 05:16:10;;;;;;;22.58;17.27;;;;;;;;;;5012559;28;20022;-59
2023/06/11 05:18:36;;;;;;;21.08;16.25;;;;;;;;;;5013118;28;20033;-61
2023/06/11 05:21:02;;;;;;;19.85;15.00;;;;;;;;;;5013426;28;20029;-57
2023/06/11 05:23:30;;;;;;;19.88;15.60;;;;;;;;;;4995795;28;20014;-60
2023/06/11 05:26:11;;;;;;;19.90;14.98;;;;;;;;;;5012595;28;20014;-58
2023/06/11 05:28:37;;;;;;;20.05;15.20;;;;;;;;;;4996189;28;20033;-62
2023/06/11 05:31:05;;;;;;;21.40;15.45;;;;;;;;;;5013475;28;20373;-58
2023/06/11 05:33:31;;;;;;;24.27;18.48;;;;;;;;;;5013305;28;20018;-61
2023/06/11 05:35:57;;;;;;;21.30;16.02;;;;;;;;;;5012395;28;20033;-58
2023/06/11 05:38:28;;;;;;;21.13;16.13;;;;;;;;;;4995415;28;20025;-56
2023/06/11 05:40:54;;;;;;;20.05;15.23;;;;;;;;;;5013265;28;20017;-57
2023/06/11 05:43:20;;;;;;;22.48;16.63;;;;;;;;;;4995593;28;20107;-58
2023/06/11 05:45:50;;;;;;;21.20;16.00;;;;;;;;;;5012174;28;20021;-58
2023/06/11 05:48:17;;;;;;;21.77;16.80;;;;;;;;;;4995483;28;20028;-58
2023/06/11 05:50:43;;;;;;;20.85;16.10;;;;;;;;;;5012964;28;20032;-56
2023/06/11 05:53:09;;;;;;;20.48;15.48;;;;;;;;;;5013005;28;20022;-57
2023/06/11 05:55:37;;;;;;;20.65;16.63;;;;;;;;;;4994607;28;20470;-58
2023/06/11 05:58:03;;;;;;;19.30;15.18;;;;;;;;;;5012886;28;20017;-56
2023/06/11 06:00:29;;;;;;;22.10;15.88;;;;;;;;;;5012592;28;20029;-55
2023/06/11 06:02:55;;;;;;;20.73;15.77;;;;;;;;;;4995428;28;20026;-58
2023/06/11 06:05:22;;;;;;;21.15;16.38;;;;;;;;;;5011876;28;20445;-58
2023/06/11 06:07:48;;;;;;;19.83;15.95;;;;;;;;;;5013395;28;20032;-63
2023/06/11 06:10:14;;;;;;;20.45;16.30;;;;;;;;;;4996422;28;20014;-61
2023/06/11 06:12:40;;;;;;;22.60;16.02;;;;;;;;;;5013930;28;20025;-61
2023/06/11 06:15:07;;;;;;;21.35;15.45;;;;;;;;;;4995398;28;20025;-58
2023/06/11 06:17:33;;;;;;;22.70;16.20;;;;;;;;;;5011078;28;20535;-61
2023/06/11 06:19:59;;;;;;;21.05;15.00;;;;;;;;;;4995569;28;20052;-61
2023/06/11 06:22:25;;;;;;;19.60;15.93;;;;;;;;;;4994524;28;20615;-60
2023/06/11 06:24:51;;;;;;;23.30;15.68;;;;;;;;;;5011343;28;20478;-60
2023/06/11 06:27:17;;;;;;;20.38;15.25;;;;;;;;;;5012264;28;20075;-59
2023/06/11 06:29:43;;;;;;;20.90;15.68;;;;;;;;;;5012234;28;20076;-60
2023/06/11 06:32:09;;;;;;;23.75;15.80;;;;;;;;;;5012214;28;20156;-58
2023/06/11 06:34:36;;;;;;;19.65;15.80;;;;;;;;;;4993630;28;20558;-61
2023/06/11 06:37:02;;;;;;;20.83;15.93;;;;;;;;;;5012061;28;20067;-62
2023/06/11 06:39:28;;;;;;;19.90;15.13;;;;;;;;;;5011906;28;20030;-61
2023/06/11 06:41:54;;;;;;;21.00;16.05;;;;;;;;;;5020360;28;20018;-56
2023/06/11 06:44:20;;;;;;;19.23;15.27;;;;;;;;;;5005826;28;20112;-59
2023/06/11 06:46:46;;;;;;;21.55;15.07;;;;;;;;;;5028215;28;20109;-56
2023/06/11 06:49:12;;;;;;;19.10;15.38;;;;;;;;;;5026445;28;20021;-61
2023/06/11 06:51:38;;;;;;;19.83;15.00;;;;;;;;;;5022410;28;20468;-61
2023/06/11 06:54:04;;;;;;;19.08;15.27;;;;;;;;;;5011568;28;20026;-61
2023/06/11 06:56:30;;;;;;;19.25;15.80;;;;;;;;;;5011920;28;20022;-60
2023/06/11 06:58:56;;;;;;;19.42;15.40;;;;;;;;;;5019088;28;20127;-59
2023/06/11 07:01:22;;;;;;;20.02;15.60;;;;;;;;;;5070374;22;20041;-63
2023/06/11 07:03:48;;;;;;;19.17;15.05;;;;;;;;;;5057190;28;20025;-63
2023/06/11 07:06:14;;;;;;;18.83;15.35;;;;;;;;;;5055429;28;20040;-63
2023/06/11 07:08:40;;;;;;;20.83;15.23;;;;;;;;;;5056092;28;20477;-62
2023/06/11 07:11:07;;;;;;;19.73;15.48;;;;;;;;;;5056996;28;20027;-62
2023/06/11 07:13:33;;;;;;;20.17;16.08;;;;;;;;;;5059889;28;20032;-63
2023/06/11 07:15:58;;;;;;;18.45;15.23;;;;;;;;;;5058608;28;20025;-62
2023/06/11 07:18:26;;;;;;;22.13;15.63;;;;;;;;;;5060289;28;20036;-64
2023/06/11 07:20:52;;;;;;;18.42;14.95;;;;;;;;;;5060283;28;20066;-62
2023/06/11 07:23:18;;;;;;;20.55;15.57;;;;;;;;;;5043024;28;20036;-64
2023/06/11 07:25:45;;;;;;;20.25;16.10;;;;;;;;;;5060200;28;20029;-62
2023/06/11 07:28:11;;;;;;;20.13;16.30;;;;;;;;;;5059909;28;20029;-61
2023/06/11 07:30:37;;;;;;;19.38;16.00;;;;;;;;;;5059091;28;20504;-65
2023/06/11 07:33:03;;;;;;;19.30;16.27;;;;;;;;;;5060348;28;20024;-63
2023/06/11 07:35:29;;;;;;;19.58;16.13;;;;;;;;;;5059838;28;20025;-62
2023/06/11 07:37:56;;;;;;;20.13;15.80;;;;;;;;;;5060507;28;20020;-62
2023/06/11 07:40:22;;;;;;;18.70;15.07;;;;;;;;;;5060115;28;20024;-63
2023/06/11 07:42:48;;;;;;;19.63;15.80;;;;;;;;;;5040031;28;20021;-57
2023/06/11 07:45:15;;;;;;;21.30;15.57;;;;;;;;;;5058384;28;20013;-65
2023/06/11 07:47:41;;;;;;;19.38;15.35;;;;;;;;;;5062696;28;20403;-66
2023/06/11 07:50:08;;;;;;;20.33;15.88;;;;;;;;;;5060901;28;20415;-65
2023/06/11 07:52:34;;;;;;;20.40;16.38;;;;;;;;;;5059927;28;20021;-66
2023/06/11 07:55:00;;;;;;;19.55;15.63;;;;;;;;;;5059852;28;20098;-66
2023/06/11 07:57:26;;;;;;;19.70;15.55;;;;;;;;;;5041431;28;20120;-66
2023/06/11 07:59:53;;;;;;;20.25;15.77;;;;;;;;;;5043557;28;20028;-66
2023/06/11 08:02:19;;;;;;;20.58;15.90;;;;;;;;;;5062222;28;20123;-66
2023/06/11 08:04:45;;;;;;;19.65;16.05;;;;;;;;;;5061906;28;20112;-66
2023/06/11 08:07:12;;;;;;;19.33;16.23;;;;;;;;;;5044532;28;20032;-66
2023/06/11 08:09:38;;;;;;;18.55;15.70;;;;;;;;;;5044169;28;20418;-66
2023/06/11 08:12:08;;;;;;;21.25;16.70;;;;;;;;;;5061941;28;20067;-66
2023/06/11 08:14:35;;;;;;;21.15;17.58;;;;;;;;;;5061255;28;20024;-66
2023/06/11 08:17:01;;;;;;;18.70;15.68;;;;;;;;;;5063299;28;20035;-66
2023/06/11 08:19:27;;;;;;;21.48;15.98;;;;;;;;;;5062622;28;20037;-65
2023/06/11 08:21:55;;;;;;;19.67;15.57;;;;;;;;;;5060716;28;20025;-66
2023/06/11 08:24:21;;;;;;;19.42;15.90;;;;;;;;;;5067540;28;20017;-65
2023/06/11 08:26:47;;;;;;;18.75;16.05;;;;;;;;;;5073693;28;20062;-66
2023/06/11 08:29:13;;;;;;;19.00;15.70;;;;;;;;;;5076226;28;20025;-66
2023/06/11 08:31:40;;;;;;;22.63;16.83;;;;;;;;;;5072095;28;20032;-66
2023/06/11 08:34:06;;;;;;;20.38;17.00;;;;;;;;;;5060905;28;20048;-66
2023/06/11 08:36:32;;;;;;;19.48;16.52;;;;;;;;;;5066984;28;20389;-65
2023/06/11 08:38:58;;;;;;;19.35;17.13;;;;;;;;;;5081379;28;20028;-66
2023/06/11 08:41:24;;;;;;;19.40;16.02;;;;;;;;;;5075191;28;20415;-66
2023/06/11 08:43:50;;;;;;;19.67;16.77;;;;;;;;;;5073764;28;20025;-66
2023/06/11 08:46:16;;;;;;;21.83;17.60;;;;;;;;;;5081012;28;20020;-67
2023/06/11 08:48:43;;;;;;;22.38;16.80;;;;;;;;;;5061793;28;20082;-66
2023/06/11 08:51:10;;;;;;;19.75;16.88;;;;;;;;;;5078697;28;20020;-66
2023/06/11 08:53:37;;;;;;;20.13;16.85;;;;;;;;;;5061336;28;20024;-66
2023/06/11 08:56:04;;;;;;;19.23;15.88;;;;;;;;;;5060536;28;20021;-67
2023/06/11 08:58:33;;;;;;;21.30;16.92;;;;;;;;;;5062351;28;20021;-65
2023/06/11 09:01:02;;;;;;;21.48;16.65;;;;;;;;;;5080872;28;20037;-65
2023/06/11 09:03:28;;;;;;;20.38;16.02;;;;;;;;;;5064822;28;20072;-66
2023/06/11 09:05:54;;;;;;;19.80;16.40;;;;;;;;;;5082297;28;20020;-66
2023/06/11 09:08:20;;;;;;;21.52;16.17;;;;;;;;;;5081618;28;20116;-66
2023/06/11 09:10:50;;;;;;;20.67;16.60;;;;;;;;;;5061756;28;20056;-66
2023/06/11 09:13:17;;;;;;;19.25;15.88;;;;;;;;;;5062145;28;20029;-66
2023/06/11 09:15:46;;;;;;;22.60;15.80;;;;;;;;;;5058339;28;20096;-66
2023/06/11 09:18:12;;;;;;;19.98;16.00;;;;;;;;;;5042287;28;20036;-65
2023/06/11 09:20:38;;;;;;;20.00;16.58;;;;;;;;;;5043562;28;20017;-64
2023/06/11 09:23:04;;;;;;;19.08;15.90;;;;;;;;;;5061661;28;20044;-66
2023/06/11 09:25:31;;;;;;;21.67;16.75;;;;;;;;;;5043809;28;20544;-66
2023/06/11 09:28:05;;;;;;;20.08;16.83;;;;;;;;;;5043996;28;20021;-66
2023/06/11 09:30:31;;;;;;;22.70;17.02;;;;;;;;;;5062665;28;20065;-66
2023/06/11 09:32:57;;;;;;;20.38;16.00;;;;;;;;;;5043424;28;20027;-66
2023/06/11 09:35:23;;;;;;;19.73;15.30;;;;;;;;;;5035392;28;20025;-57
2023/06/11 09:37:50;;;;;;;20.67;15.95;;;;;;;;;;5033338;28;20021;-57
2023/06/11 09:40:17;;;;;;;20.38;16.25;;;;;;;;;;5050932;28;20025;-59
2023/06/11 09:42:43;;;;;;;19.27;17.00;;;;;;;;;;5033429;28;20021;-59
2023/06/11 09:45:19;;;;;;;19.35;16.13;;;;;;;;;;5032362;28;20021;-59
2023/06/11 09:47:46;;;;;;;21.42;16.38;;;;;;;;;;5051140;28;20021;-61
2023/06/11 09:50:16;;;;;;;19.85;15.30;;;;;;;;;;5050842;28;20080;-62
2023/06/11 09:52:42;;;;;;;20.70;16.17;;;;;;;;;;5033293;28;20053;-61
2023/06/11 09:55:08;;;;;;;19.85;15.43;;;;;;;;;;5049902;28;20473;-62
2023/06/11 09:57:36;;;;;;;22.25;15.93;;;;;;;;;;5050752;28;20032;-62
2023/06/11 10:00:02;;;;;;;18.92;15.52;;;;;;;;;;5050626;28;20790;-57
2023/06/11 10:02:28;;;;;;;18.88;15.10;;;;;;;;;;5050639;28;20105;-60
2023/06/11 10:04:55;;;;;;;19.55;16.02;;;;;;;;;;5031992;28;20025;-62
2023/06/11 10:07:23;;;;;;;18.75;14.80;;;;;;;;;;5034684;28;20108;-63
2023/06/11 10:09:50;;;;;;;20.95;15.93;;;;;;;;;;5060420;28;20364;-62
2023/06/11 10:12:16;;;;;;;20.67;15.82;;;;;;;;;;5050193;28;20028;-63
2023/06/11 10:14:50;;;;;;;18.00;15.27;;;;;;;;;;5063701;28;20066;-62
2023/06/11 10:17:16;;;;;;;20.98;15.43;;;;;;;;;;5036568;28;20025;-61
2023/06/11 10:19:42;;;;;;;19.33;15.55;;;;;;;;;;5050066;28;20017;-60
2023/06/11 10:22:09;;;;;;;18.90;15.45;;;;;;;;;;5050170;28;20025;-62
2023/06/11 10:24:35;;;;;;;18.55;14.85;;;;;;;;;;5031649;28;20017;-62
2023/06/11 10:27:05;;;;;;;18.92;15.85;;;;;;;;;;5032064;28;20190;-61
2023/06/11 10:29:36;;;;;;;19.13;15.77;;;;;;;;;;5030327;28;20025;-60
2023/06/11 10:32:02;;;;;;;21.33;15.82;;;;;;;;;;5029918;28;20124;-57
2023/06/11 10:34:38;;;;;;;19.75;14.50;;;;;;;;;;5029650;28;20052;-61
2023/06/11 10:37:05;;;;;;;21.27;15.40;;;;;;;;;;5030560;28;20385;-63
2023/06/11 10:39:31;;;;;;;18.48;15.32;;;;;;;;;;5030369;28;20053;-62
2023/06/11 10:42:01;;;;;;;19.17;16.02;;;;;;;;;;5012254;28;20462;-60
2023/06/11 10:44:29;;;;;;;18.95;15.93;;;;;;;;;;5029553;28;20091;-62
2023/06/11 10:46:55;;;;;;;18.40;15.27;;;;;;;;;;5011846;28;20052;-62
2023/06/11 10:49:28;;;;;;;20.45;15.00;;;;;;;;;;5012239;28;20056;-59
2023/06/11 10:51:55;;;;;;;20.95;16.08;;;;;;;;;;5031432;28;20025;-62
2023/06/11 10:54:27;;;;;;;20.85;15.27;;;;;;;;;;5012605;28;20022;-59
2023/06/11 10:56:53;;;;;;;19.88;15.45;;;;;;;;;;5013593;28;20072;-60
2023/06/11 10:59:21;;;;;;;19.27;15.77;;;;;;;;;;5031330;28;20025;-63
2023/06/11 11:01:47;;;;;;;19.02;15.90;;;;;;;;;;5031796;28;20490;-60
2023/06/11 11:04:13;;;;;;;19.70;15.20;;;;;;;;;;5061011;28;20055;-62
2023/06/11 11:06:39;;;;;;;18.90;15.68;;;;;;;;;;5060108;28;20491;-62
2023/06/11 11:09:05;;;;;;;19.05;15.30;;;;;;;;;;5064398;28;20091;-57
2023/06/11 11:11:33;;;;;;;19.80;16.00;;;;;;;;;;5065367;28;20048;-61
2023/06/11 11:13:59;;;;;;;20.02;15.45;;;;;;;;;;5043789;28;20028;-60
2023/06/11 11:16:26;;;;;;;20.13;15.82;;;;;;;;;;5063096;28;20023;-60
2023/06/11 11:18:52;;;;;;;21.58;16.13;;;;;;;;;;5058949;28;20116;-60
2023/06/11 11:21:18;;;;;;;24.58;15.68;;;;;;;;;;5066220;28;20044;-59
2023/06/11 11:23:48;;;;;;;19.13;15.07;;;;;;;;;;5071087;28;20126;-57
2023/06/11 11:26:15;;;;;;;19.70;15.00;;;;;;;;;;5070055;28;20148;-61
2023/06/11 11:28:41;;;;;;;21.67;15.40;;;;;;;;;;5036044;28;20054;-59
2023/06/11 11:31:07;;;;;;;20.95;16.13;;;;;;;;;;5051971;28;20027;-61
2023/06/11 11:33:35;;;;;;;18.65;15.20;;;;;;;;;;5070703;28;20023;-60
2023/06/11 11:36:02;;;;;;;20.08;15.40;;;;;;;;;;5070227;28;20263;-59
2023/06/11 11:38:33;;;;;;;18.75;15.63;;;;;;;;;;5070595;28;20024;-60
2023/06/11 11:40:59;;;;;;;24.30;16.67;;;;;;;;;;5071553;28;20032;-61
2023/06/11 11:43:25;;;;;;;19.85;15.63;;;;;;;;;;5071017;28;20088;-61
2023/06/11 11:45:51;;;;;;;22.08;15.93;;;;;;;;;;5070399;28;20443;-61
2023/06/11 11:48:17;;;;;;;22.73;16.60;;;;;;;;;;5070703;28;20056;-60
2023/06/11 11:50:45;;;;;;;17.75;15.45;;;;;;;;;;5070445;28;20526;-62
2023/06/11 11:53:15;;;;;;;20.25;15.65;;;;;;;;;;5070325;28;20069;-61
2023/06/11 11:55:47;;;;;;;19.95;15.70;;;;;;;;;;5069941;28;20012;-60
2023/06/11 11:58:17;;;;;;;21.05;15.77;;;;;;;;;;5073398;28;20040;-61
2023/06/11 12:00:46;;;;;;;19.38;15.75;;;;;;;;;;5073732;28;20039;-61
2023/06/11 12:03:12;;;;;;;20.27;15.65;;;;;;;;;;5055815;28;20013;-61
2023/06/11 12:05:39;;;;;;;19.95;16.15;;;;;;;;;;5073523;28;20479;-59
2023/06/11 12:08:08;;;;;;;18.88;15.88;;;;;;;;;;5045208;28;20023;-62
2023/06/11 12:10:34;;;;;;;18.95;16.23;;;;;;;;;;5053693;28;20100;-61
2023/06/11 12:13:00;;;;;;;18.38;16.05;;;;;;;;;;5053057;28;20052;-61
2023/06/11 12:15:27;;;;;;;18.73;15.23;;;;;;;;;;5052444;28;20539;-62
2023/06/11 12:17:53;;;;;;;21.50;16.38;;;;;;;;;;5053242;28;20518;-63
2023/06/11 12:20:21;;;;;;;18.75;15.25;;;;;;;;;;5053067;28;20028;-61
2023/06/11 12:22:47;;;;;;;20.48;15.48;;;;;;;;;;5053092;28;20023;-61
2023/06/11 12:25:14;;;;;;;19.45;14.68;;;;;;;;;;5053193;28;20025;-61
2023/06/11 12:27:41;;;;;;;19.77;15.23;;;;;;;;;;5036036;28;20087;-62
2023/06/11 12:30:07;;;;;;;19.27;14.45;;;;;;;;;;5053201;28;20043;-61
2023/06/11 12:32:33;;;;;;;18.02;15.43;;;;;;;;;;5052211;28;20027;-61
2023/06/11 12:35:00;;;;;;;18.98;15.52;;;;;;;;;;5050183;28;20481;-58
2023/06/11 12:37:26;;;;;;;19.15;15.70;;;;;;;;;;5049047;28;20112;-61
2023/06/11 12:39:53;;;;;;;19.63;16.13;;;;;;;;;;5049329;28;20120;-62
2023/06/11 12:42:20;;;;;;;19.92;16.17;;;;;;;;;;5049986;28;20413;-62
2023/06/11 12:44:46;;;;;;;19.35;15.57;;;;;;;;;;5048673;28;20141;-60
2023/06/11 12:47:13;;;;;;;19.15;16.08;;;;;;;;;;5049403;28;20029;-62
2023/06/11 12:49:39;;;;;;;19.40;15.95;;;;;;;;;;5049918;28;20025;-60
2023/06/11 12:52:05;;;;;;;19.23;15.45;;;;;;;;;;5052113;28;20051;-62
2023/06/11 12:54:31;;;;;;;18.45;15.15;;;;;;;;;;5051355;28;20041;-60
2023/06/11 12:56:57;;;;;;;18.88;15.52;;;;;;;;;;5051878;28;20084;-62
2023/06/11 12:59:23;;;;;;;20.08;16.05;;;;;;;;;;5051869;28;20067;-62
2023/06/11 13:01:50;;;;;;;19.52;15.57;;;;;;;;;;5068041;22;20477;-57
2023/06/11 13:04:16;;;;;;;18.90;15.83;;;;;;;;;;5052704;28;20063;-55
2023/06/11 13:06:43;;;;;;;20.75;16.40;;;;;;;;;;5051881;28;20335;-54
2023/06/11 13:09:09;;;;;;;18.42;15.63;;;;;;;;;;5052146;28;20029;-54
2023/06/11 13:11:35;;;;;;;18.38;15.30;;;;;;;;;;5053171;28;20423;-54
2023/06/11 13:14:01;;;;;;;19.42;16.60;;;;;;;;;;5052052;28;20056;-54
2023/06/11 13:16:27;;;;;;;18.40;15.65;;;;;;;;;;5052416;28;20066;-57
2023/06/11 13:18:53;;;;;;;19.23;15.25;;;;;;;;;;5052651;28;20136;-54
2023/06/11 13:21:19;;;;;;;19.63;16.25;;;;;;;;;;5052643;28;20500;-54
2023/06/11 13:23:45;;;;;;;18.33;16.15;;;;;;;;;;5052559;28;20481;-53
2023/06/11 13:26:11;;;;;;;18.13;16.10;;;;;;;;;;5052253;28;20111;-56
2023/06/11 13:28:39;;;;;;;18.83;16.60;;;;;;;;;;5052521;28;20104;-54
2023/06/11 13:31:05;;;;;;;19.95;15.88;;;;;;;;;;5052703;28;20029;-57
2023/06/11 13:33:31;;;;;;;18.95;16.00;;;;;;;;;;5052693;28;20091;-58
2023/06/11 13:35:57;;;;;;;19.42;16.20;;;;;;;;;;5051905;28;20032;-56
2023/06/11 13:38:24;;;;;;;18.00;15.77;;;;;;;;;;5052470;28;20117;-57
2023/06/11 13:40:50;;;;;;;19.23;16.40;;;;;;;;;;5052695;28;20025;-57
2023/06/11 13:43:16;;;;;;;18.20;15.70;;;;;;;;;;5052366;28;20029;-57
2023/06/11 13:45:46;;;;;;;18.00;15.60;;;;;;;;;;5051915;28;20035;-54
2023/06/11 13:48:13;;;;;;;21.40;15.65;;;;;;;;;;5034700;28;20029;-57
2023/06/11 13:50:40;;;;;;;19.00;15.77;;;;;;;;;;5051387;28;20029;-58
2023/06/11 13:53:06;;;;;;;;;;;;;;;;;;5052696;28;20055;-56
2023/06/11 13:55:33;;;;;;;21.58;15.82;;;;;;;;;;5051016;28;19905;-56
2023/06/11 13:57:59;;;;;;;19.40;15.90;;;;;;;;;;5034044;28;20021;-55
2023/06/11 14:00:25;;;;;;;18.05;15.77;;;;;;;;;;5034161;28;20400;-55
2023/06/11 14:02:51;;;;;;;18.63;16.03;;;;;;;;;;5051829;28;20024;-54
2023/06/11 14:05:17;;;;;;;20.00;16.30;;;;;;;;;;5051373;28;20271;-57
2023/06/11 14:07:43;;;;;;;19.73;15.70;;;;;;;;;;5051789;28;20094;-54
2023/06/11 14:10:10;;;;;;;20.30;16.35;;;;;;;;;;5051695;28;20043;-52
2023/06/11 14:12:36;;;;;;;17.88;15.52;;;;;;;;;;5051883;28;20032;-53
2023/06/11 14:15:02;;;;;;;17.55;15.63;;;;;;;;;;5033190;28;20435;-54
2023/06/11 14:17:28;;;;;;;19.00;15.48;;;;;;;;;;5051479;28;20025;-55